sensor_id;sensor_type;location;lat;lon;timestamp;P1;durP1;ratioP1;P2;durP2;ratioP2
68455;SDS011;55437;55.046;38.838;2024-01-15T00:00:19;13.48;;;5.82;;
68455;SDS011;55437;55.046;38.838;2024-01-15T00:02:45;13.88;;;4.90;;
68455;SDS011;55437;55.046;38.838;2024-01-15T00:05:11;11.05;;;4.82;;
68455;SDS011;55437;55.046;38.838;2024-01-15T00:07:36;12.50;;;5.93;;
68455;SDS011;55437;55.046;38.838;2024-01-15T00:10:02;14.50;;;5.20;;
68455;SDS011;55437;55.046;38.838;2024-01-15T00:12:29;10.05;;;4.70;;
68455;SDS011;55437;55.046;38.838;2024-01-15T00:14:55;10.52;;;4.18;;
68455;SDS011;55437;55.046;38.838;2024-01-15T00:17:21;12.40;;;5.78;;
68455;SDS011;55437;55.046;38.838;2024-01-15T00:19:47;15.07;;;5.60;;
68455;SDS011;55437;55.046;38.838;2024-01-15T00:22:13;14.30;;;6.13;;
68455;SDS011;55437;55.046;38.838;2024-01-15T00:24:38;13.35;;;5.85;;
68455;SDS011;55437;55.046;38.838;2024-01-15T00:27:08;11.65;;;4.32;;
68455;SDS011;55437;55.046;38.838;2024-01-15T00:29:33;11.95;;;5.05;;
68455;SDS011;55437;55.046;38.838;2024-01-15T00:32:00;12.13;;;5.93;;
68455;SDS011;55437;55.046;38.838;2024-01-15T00:34:26;13.63;;;4.82;;
68455;SDS011;55437;55.046;38.838;2024-01-15T00:36:51;10.43;;;5.28;;
68455;SDS011;55437;55.046;38.838;2024-01-15T00:39:17;13.63;;;4.60;;
68455;SDS011;55437;55.046;38.838;2024-01-15T00:41:44;15.70;;;6.05;;
68455;SDS011;55437;55.046;38.838;2024-01-15T00:44:10;13.30;;;6.25;;
68455;SDS011;55437;55.046;38.838;2024-01-15T00:46:45;17.88;;;6.28;;
68455;SDS011;55437;55.046;38.838;2024-01-15T00:49:14;13.82;;;6.15;;
68455;SDS011;55437;55.046;38.838;2024-01-15T00:51:41;11.85;;;4.80;;
68455;SDS011;55437;55.046;38.838;2024-01-15T00:54:07;16.00;;;5.65;;
68455;SDS011;55437;55.046;38.838;2024-01-15T00:56:33;10.98;;;5.25;;
68455;SDS011;55437;55.046;38.838;2024-01-15T00:59:00;9.82;;;5.05;;
68455;SDS011;55437;55.046;38.838;2024-01-15T01:01:26;11.35;;;5.32;;
68455;SDS011;55437;55.046;38.838;2024-01-15T01:03:53;16.45;;;6.50;;
68455;SDS011;55437;55.046;38.838;2024-01-15T01:06:19;11.75;;;5.13;;
68455;SDS011;55437;55.046;38.838;2024-01-15T01:08:45;12.82;;;5.80;;
68455;SDS011;55437;55.046;38.838;2024-01-15T01:11:14;13.75;;;5.68;;
68455;SDS011;55437;55.046;38.838;2024-01-15T01:13:41;13.77;;;5.78;;
68455;SDS011;55437;55.046;38.838;2024-01-15T01:16:07;13.68;;;5.65;;
68455;SDS011;55437;55.046;38.838;2024-01-15T01:18:34;15.10;;;6.15;;
68455;SDS011;55437;55.046;38.838;2024-01-15T01:21:00;14.27;;;6.47;;
68455;SDS011;55437;55.046;38.838;2024-01-15T01:23:27;15.45;;;6.18;;
68455;SDS011;55437;55.046;38.838;2024-01-15T01:25:53;15.27;;;5.70;;
68455;SDS011;55437;55.046;38.838;2024-01-15T01:28:18;15.02;;;6.38;;
68455;SDS011;55437;55.046;38.838;2024-01-15T01:30:44;15.05;;;6.00;;
68455;SDS011;55437;55.046;38.838;2024-01-15T01:33:10;12.98;;;5.60;;
68455;SDS011;55437;55.046;38.838;2024-01-15T01:35:36;12.68;;;5.80;;
68455;SDS011;55437;55.046;38.838;2024-01-15T01:38:02;11.52;;;4.72;;
68455;SDS011;55437;55.046;38.838;2024-01-15T01:40:28;18.02;;;6.95;;
68455;SDS011;55437;55.046;38.838;2024-01-15T01:42:56;16.50;;;6.78;;
68455;SDS011;55437;55.046;38.838;2024-01-15T01:45:22;15.50;;;6.50;;
68455;SDS011;55437;55.046;38.838;2024-01-15T01:47:48;12.52;;;5.47;;
68455;SDS011;55437;55.046;38.838;2024-01-15T01:50:14;11.90;;;5.18;;
68455;SDS011;55437;55.046;38.838;2024-01-15T01:52:40;11.18;;;6.13;;
68455;SDS011;55437;55.046;38.838;2024-01-15T01:55:06;13.15;;;6.55;;
68455;SDS011;55437;55.046;38.838;2024-01-15T01:57:34;11.63;;;5.35;;
68455;SDS011;55437;55.046;38.838;2024-01-15T02:00:02;12.13;;;5.97;;
68455;SDS011;55437;55.046;38.838;2024-01-15T02:02:38;11.43;;;5.00;;
68455;SDS011;55437;55.046;38.838;2024-01-15T02:05:04;15.38;;;7.05;;
68455;SDS011;55437;55.046;38.838;2024-01-15T02:07:31;18.48;;;7.30;;
68455;SDS011;55437;55.046;38.838;2024-01-15T02:09:59;13.40;;;5.97;;
68455;SDS011;55437;55.046;38.838;2024-01-15T02:12:25;12.30;;;6.03;;
68455;SDS011;55437;55.046;38.838;2024-01-15T02:14:52;15.13;;;6.97;;
68455;SDS011;55437;55.046;38.838;2024-01-15T02:17:18;19.30;;;7.60;;
68455;SDS011;55437;55.046;38.838;2024-01-15T02:19:44;15.25;;;5.90;;
68455;SDS011;55437;55.046;38.838;2024-01-15T02:22:10;19.70;;;8.75;;
68455;SDS011;55437;55.046;38.838;2024-01-15T02:24:36;16.92;;;6.68;;
68455;SDS011;55437;55.046;38.838;2024-01-15T02:27:02;15.73;;;7.45;;
68455;SDS011;55437;55.046;38.838;2024-01-15T02:29:28;16.52;;;7.60;;
68455;SDS011;55437;55.046;38.838;2024-01-15T02:31:55;10.93;;;5.18;;
68455;SDS011;55437;55.046;38.838;2024-01-15T02:34:21;15.75;;;6.70;;
68455;SDS011;55437;55.046;38.838;2024-01-15T02:36:47;16.33;;;7.75;;
68455;SDS011;55437;55.046;38.838;2024-01-15T02:39:13;13.40;;;6.28;;
68455;SDS011;55437;55.046;38.838;2024-01-15T02:41:38;15.45;;;6.55;;
68455;SDS011;55437;55.046;38.838;2024-01-15T02:44:04;15.32;;;7.30;;
68455;SDS011;55437;55.046;38.838;2024-01-15T02:46:30;17.02;;;7.75;;
68455;SDS011;55437;55.046;38.838;2024-01-15T02:48:56;17.38;;;7.72;;
68455;SDS011;55437;55.046;38.838;2024-01-15T02:51:22;14.82;;;7.03;;
68455;SDS011;55437;55.046;38.838;2024-01-15T02:53:49;16.33;;;7.80;;
68455;SDS011;55437;55.046;38.838;2024-01-15T02:56:15;15.88;;;7.03;;
68455;SDS011;55437;55.046;38.838;2024-01-15T02:58:42;21.33;;;8.35;;
68455;SDS011;55437;55.046;38.838;2024-01-15T03:01:08;19.58;;;8.43;;
68455;SDS011;55437;55.046;38.838;2024-01-15T03:03:34;18.80;;;8.15;;
68455;SDS011;55437;55.046;38.838;2024-01-15T03:06:01;18.17;;;8.52;;
68455;SDS011;55437;55.046;38.838;2024-01-15T03:08:27;16.13;;;6.28;;
68455;SDS011;55437;55.046;38.838;2024-01-15T03:10:54;19.00;;;7.32;;
68455;SDS011;55437;55.046;38.838;2024-01-15T03:13:21;17.55;;;8.50;;
68455;SDS011;55437;55.046;38.838;2024-01-15T03:15:47;23.02;;;8.15;;
68455;SDS011;55437;55.046;38.838;2024-01-15T03:18:13;17.30;;;7.45;;
68455;SDS011;55437;55.046;38.838;2024-01-15T03:20:39;18.95;;;7.65;;
68455;SDS011;55437;55.046;38.838;2024-01-15T03:23:05;17.23;;;6.80;;
68455;SDS011;55437;55.046;38.838;2024-01-15T03:25:30;19.58;;;9.80;;
68455;SDS011;55437;55.046;38.838;2024-01-15T03:27:56;21.75;;;8.57;;
68455;SDS011;55437;55.046;38.838;2024-01-15T03:30:22;18.27;;;7.50;;
68455;SDS011;55437;55.046;38.838;2024-01-15T03:32:48;20.75;;;9.07;;
68455;SDS011;55437;55.046;38.838;2024-01-15T03:35:15;16.13;;;6.70;;
68455;SDS011;55437;55.046;38.838;2024-01-15T03:37:41;16.42;;;6.97;;
68455;SDS011;55437;55.046;38.838;2024-01-15T03:40:07;19.60;;;8.90;;
68455;SDS011;55437;55.046;38.838;2024-01-15T03:42:34;20.27;;;8.10;;
68455;SDS011;55437;55.046;38.838;2024-01-15T03:45:00;17.98;;;8.50;;
68455;SDS011;55437;55.046;38.838;2024-01-15T03:47:26;19.85;;;8.63;;
68455;SDS011;55437;55.046;38.838;2024-01-15T03:49:52;13.40;;;6.55;;
68455;SDS011;55437;55.046;38.838;2024-01-15T03:52:18;13.38;;;6.63;;
68455;SDS011;55437;55.046;38.838;2024-01-15T03:54:43;18.30;;;7.63;;
68455;SDS011;55437;55.046;38.838;2024-01-15T03:57:09;16.08;;;8.15;;
68455;SDS011;55437;55.046;38.838;2024-01-15T03:59:35;18.38;;;8.63;;
68455;SDS011;55437;55.046;38.838;2024-01-15T04:02:01;19.90;;;8.70;;
68455;SDS011;55437;55.046;38.838;2024-01-15T04:04:27;13.27;;;5.70;;
68455;SDS011;55437;55.046;38.838;2024-01-15T04:06:55;19.60;;;8.07;;
68455;SDS011;55437;55.046;38.838;2024-01-15T04:09:21;18.52;;;8.82;;
68455;SDS011;55437;55.046;38.838;2024-01-15T04:11:47;16.88;;;7.63;;
68455;SDS011;55437;55.046;38.838;2024-01-15T04:14:13;17.50;;;8.63;;
68455;SDS011;55437;55.046;38.838;2024-01-15T04:16:39;15.57;;;7.38;;
68455;SDS011;55437;55.046;38.838;2024-01-15T04:19:05;20.27;;;9.02;;
68455;SDS011;55437;55.046;38.838;2024-01-15T04:21:30;21.35;;;8.32;;
68455;SDS011;55437;55.046;38.838;2024-01-15T04:23:56;19.33;;;8.65;;
68455;SDS011;55437;55.046;38.838;2024-01-15T04:26:23;17.48;;;8.00;;
68455;SDS011;55437;55.046;38.838;2024-01-15T04:28:50;21.08;;;8.52;;
68455;SDS011;55437;55.046;38.838;2024-01-15T04:31:21;19.58;;;9.70;;
68455;SDS011;55437;55.046;38.838;2024-01-15T04:33:48;19.35;;;8.95;;
68455;SDS011;55437;55.046;38.838;2024-01-15T04:36:13;19.63;;;8.52;;
68455;SDS011;55437;55.046;38.838;2024-01-15T04:38:40;20.27;;;10.40;;
68455;SDS011;55437;55.046;38.838;2024-01-15T04:41:05;16.80;;;7.32;;
68455;SDS011;55437;55.046;38.838;2024-01-15T04:43:32;17.98;;;9.15;;
68455;SDS011;55437;55.046;38.838;2024-01-15T04:45:58;20.60;;;9.48;;
68455;SDS011;55437;55.046;38.838;2024-01-15T04:48:24;18.45;;;8.38;;
68455;SDS011;55437;55.046;38.838;2024-01-15T04:50:54;17.08;;;7.93;;
68455;SDS011;55437;55.046;38.838;2024-01-15T04:53:20;19.45;;;8.93;;
68455;SDS011;55437;55.046;38.838;2024-01-15T04:55:45;17.33;;;8.13;;
68455;SDS011;55437;55.046;38.838;2024-01-15T04:58:11;16.45;;;7.63;;
68455;SDS011;55437;55.046;38.838;2024-01-15T05:00:38;19.58;;;9.07;;
68455;SDS011;55437;55.046;38.838;2024-01-15T05:03:04;15.57;;;7.30;;
68455;SDS011;55437;55.046;38.838;2024-01-15T05:05:30;18.48;;;7.07;;
68455;SDS011;55437;55.046;38.838;2024-01-15T05:07:56;18.05;;;7.75;;
68455;SDS011;55437;55.046;38.838;2024-01-15T05:10:23;20.30;;;9.55;;
68455;SDS011;55437;55.046;38.838;2024-01-15T05:12:49;21.85;;;8.57;;
68455;SDS011;55437;55.046;38.838;2024-01-15T05:15:14;19.10;;;7.97;;
68455;SDS011;55437;55.046;38.838;2024-01-15T05:17:40;22.17;;;9.32;;
68455;SDS011;55437;55.046;38.838;2024-01-15T05:20:07;20.20;;;9.35;;
68455;SDS011;55437;55.046;38.838;2024-01-15T05:22:33;34.22;;;8.60;;
68455;SDS011;55437;55.046;38.838;2024-01-15T05:24:59;21.40;;;8.65;;
68455;SDS011;55437;55.046;38.838;2024-01-15T05:27:25;20.13;;;8.68;;
68455;SDS011;55437;55.046;38.838;2024-01-15T05:29:52;19.77;;;7.57;;
68455;SDS011;55437;55.046;38.838;2024-01-15T05:32:18;19.23;;;8.27;;
68455;SDS011;55437;55.046;38.838;2024-01-15T05:34:43;19.48;;;8.63;;
68455;SDS011;55437;55.046;38.838;2024-01-15T05:37:09;18.55;;;9.40;;
68455;SDS011;55437;55.046;38.838;2024-01-15T05:39:35;15.20;;;6.55;;
68455;SDS011;55437;55.046;38.838;2024-01-15T05:42:01;17.55;;;7.65;;
68455;SDS011;55437;55.046;38.838;2024-01-15T05:44:27;14.25;;;6.25;;
68455;SDS011;55437;55.046;38.838;2024-01-15T05:46:53;18.73;;;8.45;;
68455;SDS011;55437;55.046;38.838;2024-01-15T05:49:18;18.60;;;9.25;;
68455;SDS011;55437;55.046;38.838;2024-01-15T05:51:44;17.90;;;7.95;;
68455;SDS011;55437;55.046;38.838;2024-01-15T05:54:10;17.38;;;8.68;;
68455;SDS011;55437;55.046;38.838;2024-01-15T05:56:36;22.55;;;10.32;;
68455;SDS011;55437;55.046;38.838;2024-01-15T05:59:03;17.08;;;8.02;;
68455;SDS011;55437;55.046;38.838;2024-01-15T06:01:29;19.15;;;8.68;;
68455;SDS011;55437;55.046;38.838;2024-01-15T06:03:55;14.98;;;6.88;;
68455;SDS011;55437;55.046;38.838;2024-01-15T06:06:21;17.20;;;7.60;;
68455;SDS011;55437;55.046;38.838;2024-01-15T06:08:47;15.02;;;7.05;;
68455;SDS011;55437;55.046;38.838;2024-01-15T06:11:13;17.77;;;7.65;;
68455;SDS011;55437;55.046;38.838;2024-01-15T06:13:40;17.70;;;8.85;;
68455;SDS011;55437;55.046;38.838;2024-01-15T06:16:15;22.08;;;9.25;;
68455;SDS011;55437;55.046;38.838;2024-01-15T06:18:45;20.33;;;9.82;;
68455;SDS011;55437;55.046;38.838;2024-01-15T06:21:11;15.38;;;9.32;;
68455;SDS011;55437;55.046;38.838;2024-01-15T06:23:39;13.10;;;6.45;;
68455;SDS011;55437;55.046;38.838;2024-01-15T06:26:05;15.68;;;7.88;;
68455;SDS011;55437;55.046;38.838;2024-01-15T06:28:31;22.10;;;9.75;;
68455;SDS011;55437;55.046;38.838;2024-01-15T06:30:57;17.05;;;7.70;;
68455;SDS011;55437;55.046;38.838;2024-01-15T06:33:23;18.45;;;8.90;;
68455;SDS011;55437;55.046;38.838;2024-01-15T06:35:50;16.38;;;8.43;;
68455;SDS011;55437;55.046;38.838;2024-01-15T06:38:17;19.45;;;9.63;;
68455;SDS011;55437;55.046;38.838;2024-01-15T06:40:43;18.63;;;8.45;;
68455;SDS011;55437;55.046;38.838;2024-01-15T06:43:11;19.90;;;9.68;;
68455;SDS011;55437;55.046;38.838;2024-01-15T06:45:38;20.00;;;8.10;;
68455;SDS011;55437;55.046;38.838;2024-01-15T06:48:06;16.73;;;7.55;;
68455;SDS011;55437;55.046;38.838;2024-01-15T06:50:33;13.80;;;7.18;;
68455;SDS011;55437;55.046;38.838;2024-01-15T06:52:59;19.50;;;9.20;;
68455;SDS011;55437;55.046;38.838;2024-01-15T06:55:25;17.65;;;8.68;;
68455;SDS011;55437;55.046;38.838;2024-01-15T06:57:51;20.10;;;9.52;;
68455;SDS011;55437;55.046;38.838;2024-01-15T07:00:18;19.73;;;9.38;;
68455;SDS011;55437;55.046;38.838;2024-01-15T07:02:45;21.65;;;8.43;;
68455;SDS011;55437;55.046;38.838;2024-01-15T07:05:11;15.70;;;7.43;;
68455;SDS011;55437;55.046;38.838;2024-01-15T07:07:37;21.08;;;9.77;;
68455;SDS011;55437;55.046;38.838;2024-01-15T07:10:04;21.15;;;10.02;;
68455;SDS011;55437;55.046;38.838;2024-01-15T07:12:31;21.42;;;9.07;;
68455;SDS011;55437;55.046;38.838;2024-01-15T07:14:58;26.27;;;9.60;;
68455;SDS011;55437;55.046;38.838;2024-01-15T07:17:24;16.23;;;9.05;;
68455;SDS011;55437;55.046;38.838;2024-01-15T07:19:50;16.27;;;6.82;;
68455;SDS011;55437;55.046;38.838;2024-01-15T07:22:15;22.20;;;9.60;;
68455;SDS011;55437;55.046;38.838;2024-01-15T07:24:43;13.90;;;6.60;;
68455;SDS011;55437;55.046;38.838;2024-01-15T07:27:09;21.90;;;7.90;;
68455;SDS011;55437;55.046;38.838;2024-01-15T07:29:35;20.92;;;10.02;;
68455;SDS011;55437;55.046;38.838;2024-01-15T07:32:04;17.58;;;8.43;;
68455;SDS011;55437;55.046;38.838;2024-01-15T07:34:30;18.40;;;8.98;;
68455;SDS011;55437;55.046;38.838;2024-01-15T07:36:57;18.23;;;8.48;;
68455;SDS011;55437;55.046;38.838;2024-01-15T07:39:23;17.13;;;8.38;;
68455;SDS011;55437;55.046;38.838;2024-01-15T07:41:50;18.92;;;7.60;;
68455;SDS011;55437;55.046;38.838;2024-01-15T07:44:18;20.42;;;9.13;;
68455;SDS011;55437;55.046;38.838;2024-01-15T07:46:44;17.48;;;9.65;;
68455;SDS011;55437;55.046;38.838;2024-01-15T07:49:13;16.27;;;8.40;;
68455;SDS011;55437;55.046;38.838;2024-01-15T07:51:39;18.98;;;8.38;;
68455;SDS011;55437;55.046;38.838;2024-01-15T07:54:09;17.35;;;8.48;;
68455;SDS011;55437;55.046;38.838;2024-01-15T07:56:52;15.15;;;8.10;;
68455;SDS011;55437;55.046;38.838;2024-01-15T07:59:26;20.40;;;9.02;;
68455;SDS011;55437;55.046;38.838;2024-01-15T08:01:53;20.95;;;10.13;;
68455;SDS011;55437;55.046;38.838;2024-01-15T08:04:19;19.10;;;9.32;;
68455;SDS011;55437;55.046;38.838;2024-01-15T08:06:45;15.55;;;7.90;;
68455;SDS011;55437;55.046;38.838;2024-01-15T08:09:12;20.83;;;10.02;;
68455;SDS011;55437;55.046;38.838;2024-01-15T08:11:44;19.20;;;8.95;;
68455;SDS011;55437;55.046;38.838;2024-01-15T08:14:11;19.98;;;10.15;;
68455;SDS011;55437;55.046;38.838;2024-01-15T08:16:37;20.27;;;9.88;;
68455;SDS011;55437;55.046;38.838;2024-01-15T08:19:07;18.70;;;9.13;;
68455;SDS011;55437;55.046;38.838;2024-01-15T08:21:33;19.13;;;9.32;;
68455;SDS011;55437;55.046;38.838;2024-01-15T08:23:59;18.30;;;9.02;;
68455;SDS011;55437;55.046;38.838;2024-01-15T08:26:26;22.13;;;10.35;;
68455;SDS011;55437;55.046;38.838;2024-01-15T08:28:52;22.95;;;10.48;;
68455;SDS011;55437;55.046;38.838;2024-01-15T08:31:18;23.20;;;10.77;;
68455;SDS011;55437;55.046;38.838;2024-01-15T08:33:45;21.88;;;10.02;;
68455;SDS011;55437;55.046;38.838;2024-01-15T08:36:12;20.77;;;9.15;;
68455;SDS011;55437;55.046;38.838;2024-01-15T08:38:38;25.77;;;11.40;;
68455;SDS011;55437;55.046;38.838;2024-01-15T08:41:04;22.30;;;13.30;;
68455;SDS011;55437;55.046;38.838;2024-01-15T08:43:30;22.58;;;10.32;;
68455;SDS011;55437;55.046;38.838;2024-01-15T08:45:56;24.48;;;12.02;;
68455;SDS011;55437;55.046;38.838;2024-01-15T08:48:25;21.15;;;8.73;;
68455;SDS011;55437;55.046;38.838;2024-01-15T08:50:53;23.30;;;11.38;;
68455;SDS011;55437;55.046;38.838;2024-01-15T08:53:20;22.85;;;10.40;;
68455;SDS011;55437;55.046;38.838;2024-01-15T08:55:47;24.60;;;10.93;;
68455;SDS011;55437;55.046;38.838;2024-01-15T08:58:13;22.98;;;9.75;;
68455;SDS011;55437;55.046;38.838;2024-01-15T09:00:39;21.45;;;9.73;;
68455;SDS011;55437;55.046;38.838;2024-01-15T09:03:05;26.30;;;10.43;;
68455;SDS011;55437;55.046;38.838;2024-01-15T09:05:34;20.63;;;9.98;;
68455;SDS011;55437;55.046;38.838;2024-01-15T09:08:01;17.40;;;8.18;;
68455;SDS011;55437;55.046;38.838;2024-01-15T09:10:27;18.15;;;8.60;;
68455;SDS011;55437;55.046;38.838;2024-01-15T09:12:53;19.10;;;9.40;;
68455;SDS011;55437;55.046;38.838;2024-01-15T09:15:19;16.75;;;8.52;;
68455;SDS011;55437;55.046;38.838;2024-01-15T09:17:45;15.80;;;9.18;;
68455;SDS011;55437;55.046;38.838;2024-01-15T09:20:11;16.30;;;7.60;;
68455;SDS011;55437;55.046;38.838;2024-01-15T09:22:38;19.80;;;9.23;;
68455;SDS011;55437;55.046;38.838;2024-01-15T09:25:07;17.27;;;8.32;;
68455;SDS011;55437;55.046;38.838;2024-01-15T09:27:34;16.65;;;7.85;;
68455;SDS011;55437;55.046;38.838;2024-01-15T09:30:01;19.90;;;10.18;;
68455;SDS011;55437;55.046;38.838;2024-01-15T09:32:30;18.67;;;8.57;;
68455;SDS011;55437;55.046;38.838;2024-01-15T09:34:59;20.90;;;8.43;;
68455;SDS011;55437;55.046;38.838;2024-01-15T09:37:25;22.15;;;9.70;;
68455;SDS011;55437;55.046;38.838;2024-01-15T09:39:51;19.60;;;10.85;;
68455;SDS011;55437;55.046;38.838;2024-01-15T09:42:17;15.45;;;7.35;;
68455;SDS011;55437;55.046;38.838;2024-01-15T09:44:43;24.92;;;11.50;;
68455;SDS011;55437;55.046;38.838;2024-01-15T09:47:12;19.83;;;9.48;;
68455;SDS011;55437;55.046;38.838;2024-01-15T09:49:38;20.00;;;8.07;;
68455;SDS011;55437;55.046;38.838;2024-01-15T09:52:06;16.90;;;8.40;;
68455;SDS011;55437;55.046;38.838;2024-01-15T09:54:34;20.00;;;8.90;;
68455;SDS011;55437;55.046;38.838;2024-01-15T09:57:00;20.88;;;10.05;;
68455;SDS011;55437;55.046;38.838;2024-01-15T09:59:27;22.58;;;9.18;;
68455;SDS011;55437;55.046;38.838;2024-01-15T10:01:54;20.60;;;9.48;;
68455;SDS011;55437;55.046;38.838;2024-01-15T10:04:22;18.88;;;9.10;;
68455;SDS011;55437;55.046;38.838;2024-01-15T10:06:50;16.95;;;8.32;;
68455;SDS011;55437;55.046;38.838;2024-01-15T10:09:17;21.67;;;11.00;;
68455;SDS011;55437;55.046;38.838;2024-01-15T10:11:43;15.77;;;6.88;;
68455;SDS011;55437;55.046;38.838;2024-01-15T10:14:11;18.85;;;8.32;;
68455;SDS011;55437;55.046;38.838;2024-01-15T10:16:40;18.73;;;8.50;;
68455;SDS011;55437;55.046;38.838;2024-01-15T10:19:07;22.33;;;10.15;;
68455;SDS011;55437;55.046;38.838;2024-01-15T10:21:33;21.83;;;10.20;;
68455;SDS011;55437;55.046;38.838;2024-01-15T10:24:04;23.23;;;10.43;;
68455;SDS011;55437;55.046;38.838;2024-01-15T10:26:31;20.65;;;9.75;;
68455;SDS011;55437;55.046;38.838;2024-01-15T10:28:58;23.50;;;10.25;;
68455;SDS011;55437;55.046;38.838;2024-01-15T10:31:27;19.15;;;8.35;;
68455;SDS011;55437;55.046;38.838;2024-01-15T10:33:56;23.63;;;11.32;;
68455;SDS011;55437;55.046;38.838;2024-01-15T10:36:39;26.25;;;12.15;;
68455;SDS011;55437;55.046;38.838;2024-01-15T10:39:06;22.00;;;8.90;;
68455;SDS011;55437;55.046;38.838;2024-01-15T10:41:33;16.35;;;7.43;;
68455;SDS011;55437;55.046;38.838;2024-01-15T10:43:59;25.08;;;9.98;;
68455;SDS011;55437;55.046;38.838;2024-01-15T10:46:25;20.48;;;9.63;;
68455;SDS011;55437;55.046;38.838;2024-01-15T10:48:51;23.25;;;10.13;;
68455;SDS011;55437;55.046;38.838;2024-01-15T10:51:19;20.08;;;9.32;;
68455;SDS011;55437;55.046;38.838;2024-01-15T10:53:44;21.35;;;9.65;;
68455;SDS011;55437;55.046;38.838;2024-01-15T10:56:11;19.67;;;9.48;;
68455;SDS011;55437;55.046;38.838;2024-01-15T10:58:41;22.00;;;10.45;;
68455;SDS011;55437;55.046;38.838;2024-01-15T11:01:08;18.92;;;8.02;;
68455;SDS011;55437;55.046;38.838;2024-01-15T11:03:34;20.80;;;9.95;;
68455;SDS011;55437;55.046;38.838;2024-01-15T11:06:00;18.60;;;8.32;;
68455;SDS011;55437;55.046;38.838;2024-01-15T11:08:26;20.98;;;9.57;;
68455;SDS011;55437;55.046;38.838;2024-01-15T11:10:52;21.55;;;10.82;;
68455;SDS011;55437;55.046;38.838;2024-01-15T11:13:20;19.95;;;9.45;;
68455;SDS011;55437;55.046;38.838;2024-01-15T11:16:04;22.42;;;9.93;;
68455;SDS011;55437;55.046;38.838;2024-01-15T11:18:35;27.73;;;11.60;;
68455;SDS011;55437;55.046;38.838;2024-01-15T11:23:48;22.58;;;10.40;;
68455;SDS011;55437;55.046;38.838;2024-01-15T11:29:03;21.35;;;10.50;;
68455;SDS011;55437;55.046;38.838;2024-01-15T11:34:07;18.83;;;9.15;;
68455;SDS011;55437;55.046;38.838;2024-01-15T11:41:56;19.77;;;9.07;;
68455;SDS011;55437;55.046;38.838;2024-01-15T11:44:30;25.75;;;11.32;;
68455;SDS011;55437;55.046;38.838;2024-01-15T11:47:03;24.33;;;10.82;;
68455;SDS011;55437;55.046;38.838;2024-01-15T11:52:34;27.45;;;10.90;;
68455;SDS011;55437;55.046;38.838;2024-01-15T12:00:11;26.77;;;11.38;;
68455;SDS011;55437;55.046;38.838;2024-01-15T12:02:39;25.02;;;10.52;;
68455;SDS011;55437;55.046;38.838;2024-01-15T12:05:07;23.55;;;10.43;;
68455;SDS011;55437;55.046;38.838;2024-01-15T12:07:40;22.80;;;10.25;;
68455;SDS011;55437;55.046;38.838;2024-01-15T12:10:20;21.17;;;10.48;;
68455;SDS011;55437;55.046;38.838;2024-01-15T12:12:52;25.08;;;11.02;;
68455;SDS011;55437;55.046;38.838;2024-01-15T12:15:20;20.00;;;9.80;;
68455;SDS011;55437;55.046;38.838;2024-01-15T12:17:46;24.35;;;11.07;;
68455;SDS011;55437;55.046;38.838;2024-01-15T12:20:14;22.67;;;10.85;;
68455;SDS011;55437;55.046;38.838;2024-01-15T12:22:42;21.30;;;10.02;;
68455;SDS011;55437;55.046;38.838;2024-01-15T12:25:09;18.25;;;9.10;;
68455;SDS011;55437;55.046;38.838;2024-01-15T12:27:35;24.90;;;10.32;;
68455;SDS011;55437;55.046;38.838;2024-01-15T12:30:02;21.90;;;10.23;;
68455;SDS011;55437;55.046;38.838;2024-01-15T12:32:31;22.88;;;9.65;;
68455;SDS011;55437;55.046;38.838;2024-01-15T12:34:57;24.73;;;9.93;;
68455;SDS011;55437;55.046;38.838;2024-01-15T12:37:23;25.55;;;10.88;;
68455;SDS011;55437;55.046;38.838;2024-01-15T12:39:51;20.50;;;9.35;;
68455;SDS011;55437;55.046;38.838;2024-01-15T12:42:17;25.02;;;10.70;;
68455;SDS011;55437;55.046;38.838;2024-01-15T12:44:46;18.65;;;8.38;;
68455;SDS011;55437;55.046;38.838;2024-01-15T12:47:12;24.42;;;10.85;;
68455;SDS011;55437;55.046;38.838;2024-01-15T12:49:39;22.00;;;10.50;;
68455;SDS011;55437;55.046;38.838;2024-01-15T12:52:08;23.73;;;10.65;;
68455;SDS011;55437;55.046;38.838;2024-01-15T12:54:35;20.73;;;8.40;;
68455;SDS011;55437;55.046;38.838;2024-01-15T12:57:02;28.45;;;11.60;;
68455;SDS011;55437;55.046;38.838;2024-01-15T12:59:28;22.33;;;10.35;;
68455;SDS011;55437;55.046;38.838;2024-01-15T13:01:55;22.60;;;10.60;;
68455;SDS011;55437;55.046;38.838;2024-01-15T13:04:22;21.67;;;9.43;;
68455;SDS011;55437;55.046;38.838;2024-01-15T13:06:49;20.00;;;8.18;;
68455;SDS011;55437;55.046;38.838;2024-01-15T13:09:16;19.00;;;8.38;;
68455;SDS011;55437;55.046;38.838;2024-01-15T13:11:46;25.45;;;10.75;;
68455;SDS011;55437;55.046;38.838;2024-01-15T13:14:12;20.73;;;9.02;;
68455;SDS011;55437;55.046;38.838;2024-01-15T13:16:41;19.98;;;9.98;;
68455;SDS011;55437;55.046;38.838;2024-01-15T13:19:08;24.15;;;9.82;;
68455;SDS011;55437;55.046;38.838;2024-01-15T13:21:37;23.42;;;10.18;;
68455;SDS011;55437;55.046;38.838;2024-01-15T13:24:04;23.27;;;9.75;;
68455;SDS011;55437;55.046;38.838;2024-01-15T13:26:32;20.67;;;10.10;;
68455;SDS011;55437;55.046;38.838;2024-01-15T13:29:05;24.42;;;10.90;;
68455;SDS011;55437;55.046;38.838;2024-01-15T13:31:32;20.10;;;7.35;;
68455;SDS011;55437;55.046;38.838;2024-01-15T13:33:59;21.50;;;10.38;;
68455;SDS011;55437;55.046;38.838;2024-01-15T13:36:26;27.20;;;10.93;;
68455;SDS011;55437;55.046;38.838;2024-01-15T13:38:53;22.80;;;10.60;;
68455;SDS011;55437;55.046;38.838;2024-01-15T13:41:20;21.08;;;11.02;;
68455;SDS011;55437;55.046;38.838;2024-01-15T13:43:54;21.38;;;9.68;;
68455;SDS011;55437;55.046;38.838;2024-01-15T13:46:23;21.35;;;9.60;;
68455;SDS011;55437;55.046;38.838;2024-01-15T13:48:50;25.77;;;11.52;;
68455;SDS011;55437;55.046;38.838;2024-01-15T13:51:16;24.95;;;11.13;;
68455;SDS011;55437;55.046;38.838;2024-01-15T13:53:41;26.77;;;11.48;;
68455;SDS011;55437;55.046;38.838;2024-01-15T13:56:08;24.25;;;10.52;;
68455;SDS011;55437;55.046;38.838;2024-01-15T13:58:36;26.08;;;10.77;;
68455;SDS011;55437;55.046;38.838;2024-01-15T14:01:02;23.30;;;10.82;;
68455;SDS011;55437;55.046;38.838;2024-01-15T14:03:32;23.85;;;10.48;;
68455;SDS011;55437;55.046;38.838;2024-01-15T14:05:58;21.42;;;9.55;;
68455;SDS011;55437;55.046;38.838;2024-01-15T14:08:24;22.70;;;10.02;;
68455;SDS011;55437;55.046;38.838;2024-01-15T14:10:51;23.23;;;9.73;;
68455;SDS011;55437;55.046;38.838;2024-01-15T14:13:17;25.10;;;12.20;;
68455;SDS011;55437;55.046;38.838;2024-01-15T14:24:21;23.42;;;10.43;;
68455;SDS011;55437;55.046;38.838;2024-01-15T14:26:47;22.23;;;9.30;;
68455;SDS011;55437;55.046;38.838;2024-01-15T14:29:13;25.20;;;11.02;;
68455;SDS011;55437;55.046;38.838;2024-01-15T14:31:39;18.05;;;9.20;;
68455;SDS011;55437;55.046;38.838;2024-01-15T14:34:05;22.25;;;10.10;;
68455;SDS011;55437;55.046;38.838;2024-01-15T14:36:33;23.15;;;10.50;;
68455;SDS011;55437;55.046;38.838;2024-01-15T14:38:59;24.58;;;11.02;;
68455;SDS011;55437;55.046;38.838;2024-01-15T14:41:25;21.45;;;9.23;;
68455;SDS011;55437;55.046;38.838;2024-01-15T14:43:52;23.27;;;10.32;;
68455;SDS011;55437;55.046;38.838;2024-01-15T14:46:20;25.70;;;10.90;;